Stations météo

réclame
Mon MeteoGroup
St-Raphael, France (7680): Température de l'air & dewpoint: 14.09.2018 22:00:00 - 20.09.2018 22:00:00 (CEST)St-Raphael, France (7680): Vitesse du vent & gusts: 14.09.2018 22:00:00 - 20.09.2018 22:00:00 (CEST)St-Raphael, France (7680): Direction du vent: 14.09.2018 22:00:00 - 20.09.2018 22:00:00 (CEST)St-Raphael, France (7680): Quantités de précipitations: 14.09.2018 22:00:00 - 20.09.2018 22:00:00 (CEST)
Date & Time tt [°C] td [°C] ff [km/h] ff [knt] fx [km/h] fx [knt] dd rr [mm]
20.09.2018 22:00:00 22,9 18,4 5 3 11 6 NW 0,0
20.09.2018 21:00:00 23,5 18,4 4 2 11 6 WNW 0,0
20.09.2018 20:00:00 24,0 19,7 2 1 8 4 NNE -
20.09.2018 19:00:00 25,8 20,4 4 2 15 8 S 0,0
20.09.2018 18:00:00 26,7 20,5 8 4 18 10 SE 0,0
20.09.2018 17:00:00 27,3 20,6 8 4 18 10 SE 0,0
20.09.2018 16:00:00 28,0 21,1 9 5 22 12 SE 0,0
20.09.2018 15:00:00 28,0 20,6 11 6 22 12 SE 0,0
20.09.2018 14:00:00 27,9 19,9 11 6 24 13 SE -
20.09.2018 13:00:00 27,6 19,1 13 7 24 13 SE 0,0
20.09.2018 12:00:00 29,0 17,5 5 3 13 7 SE 0,0
20.09.2018 11:00:00 27,7 16,9 2 1 11 6 NNW 0,0
20.09.2018 10:00:00 24,6 17,1 5 3 15 8 NW 0,0
20.09.2018 09:00:00 21,1 16,3 8 4 18 10 NNW 0,0
20.09.2018 08:00:00 19,2 15,7 8 4 16 9 NNW -
20.09.2018 07:00:00 19,1 15,8 9 5 18 10 NW 0,0
20.09.2018 06:00:00 19,1 15,8 8 4 16 9 NW 0,0
20.09.2018 05:00:00 19,5 16,0 8 4 15 8 NW 0,0
20.09.2018 04:00:00 19,9 16,1 5 3 15 8 NNW 0,0
20.09.2018 03:00:00 19,8 16,6 5 3 11 6 NW 0,0
20.09.2018 02:00:00 20,7 16,7 4 2 13 7 N -
20.09.2018 01:00:00 21,3 16,9 8 4 15 8 NW 0,0
20.09.2018 00:00:00 21,1 17,9 5 3 9 5 NW 0,0
19.09.2018 23:00:00 21,2 17,4 4 2 9 5 WNW 0,0
19.09.2018 22:00:00 22,3 18,3 5 3 9 5 WNW 0,0
19.09.2018 21:00:00 23,7 19,8 2 1 8 4 N 0,0
19.09.2018 20:00:00 24,5 20,0 4 2 11 6 SE -
19.09.2018 19:00:00 25,6 20,4 5 3 13 7 SSE 0,0
19.09.2018 18:00:00 26,7 21,0 5 3 18 10 SSE 0,0
19.09.2018 17:00:00 26,9 20,3 9 5 22 12 SE 0,0
19.09.2018 16:00:00 27,4 20,2 11 6 24 13 SE 0,0
19.09.2018 15:00:00 27,7 20,8 11 6 24 13 SE 0,0
19.09.2018 14:00:00 27,8 19,8 13 7 24 13 SE -
19.09.2018 13:00:00 27,8 19,1 11 6 18 10 SE 0,0
19.09.2018 12:00:00 28,3 17,8 8 4 15 8 SE 0,0
19.09.2018 11:00:00 25,8 17,4 9 5 16 9 WNW 0,0
19.09.2018 10:00:00 22,9 17,1 11 6 22 12 NW 0,0
19.09.2018 09:00:00 20,4 17,0 9 5 18 10 NNW 0,0
19.09.2018 08:00:00 18,7 16,7 9 5 22 12 NW -
19.09.2018 07:00:00 18,7 16,7 8 4 18 10 NNW 0,0
19.09.2018 06:00:00 18,1 16,8 5 3 15 8 WNW 0,0
19.09.2018 05:00:00 19,3 17,1 5 3 15 8 NNW 0,0
19.09.2018 04:00:00 19,7 17,7 9 5 18 10 NNW 0,0
19.09.2018 03:00:00 20,0 17,8 5 3 15 8 NNW 0,0
19.09.2018 02:00:00 20,4 17,8 8 4 13 7 WNW -
19.09.2018 01:00:00 20,5 18,6 8 4 13 7 NW 0,0
19.09.2018 00:00:00 20,7 18,6 5 3 11 6 WNW 0,0
18.09.2018 23:00:00 21,4 19,1 4 2 9 5 NW 0,0
18.09.2018 22:00:00 22,5 19,9 0 0 5 3 N 0,0
18.09.2018 21:00:00 23,4 19,8 0 0 13 7 N 0,0
18.09.2018 20:00:00 24,2 20,3 5 3 15 8 ESE -
18.09.2018 19:00:00 24,7 20,2 8 4 18 10 SE 0,0
18.09.2018 18:00:00 25,4 20,0 11 6 22 12 SE 0,0
18.09.2018 17:00:00 26,8 20,2 9 5 26 14 SE 0,0
18.09.2018 16:00:00 27,3 20,1 11 6 26 14 SE 0,0
18.09.2018 15:00:00 27,1 19,4 13 7 26 14 SE 0,0
18.09.2018 14:00:00 26,1 19,2 13 7 29 16 E -
18.09.2018 13:00:00 27,7 20,0 11 6 26 14 SE 0,0
18.09.2018 12:00:00 27,2 18,5 13 7 34 18 ESE 0,0
18.09.2018 11:00:00 27,3 18,3 9 5 22 12 ENE 0,0
18.09.2018 10:00:00 23,6 17,8 8 4 13 7 W 0,0
18.09.2018 09:00:00 19,9 16,5 8 4 13 7 WNW 0,0
18.09.2018 08:00:00 17,7 15,5 8 4 15 8 WNW -
18.09.2018 07:00:00 17,3 15,6 8 4 15 8 NW 0,0
18.09.2018 06:00:00 17,6 15,9 8 4 15 8 WNW 0,0
18.09.2018 05:00:00 17,4 15,9 8 4 15 8 WNW 0,0
18.09.2018 04:00:00 18,0 16,7 5 3 13 7 NNW 0,0
18.09.2018 03:00:00 18,5 16,7 5 3 9 5 WNW 0,0
18.09.2018 02:00:00 19,0 17,5 5 3 9 5 NW -
18.09.2018 01:00:00 19,2 17,5 5 3 11 6 WNW 0,0
18.09.2018 00:00:00 19,7 18,2 4 2 9 5 NW 0,0
17.09.2018 23:00:00 20,6 18,0 4 2 8 4 NW 0,0
17.09.2018 22:00:00 21,9 18,7 2 1 5 3 NNE 0,0
17.09.2018 21:00:00 22,9 19,1 4 2 13 7 NE 0,0
17.09.2018 20:00:00 23,7 19,4 5 3 18 10 ESE -
17.09.2018 19:00:00 24,5 19,1 9 5 24 13 ESE 0,0
17.09.2018 18:00:00 25,6 19,0 11 6 29 16 ESE 0,0
17.09.2018 17:00:00 26,4 19,3 13 7 28 15 SE 0,0
17.09.2018 16:00:00 26,9 19,5 9 5 22 12 SE 0,0
17.09.2018 15:00:00 26,6 19,7 11 6 26 14 ESE 0,0
17.09.2018 14:00:00 26,7 19,1 13 7 29 16 ESE -
17.09.2018 13:00:00 26,9 18,7 13 7 28 15 ESE 0,0
17.09.2018 12:00:00 26,0 19,6 13 7 26 14 ESE 0,0
17.09.2018 11:00:00 25,6 18,3 8 4 16 9 E 0,0
17.09.2018 10:00:00 23,1 17,1 8 4 15 8 NW 0,0
17.09.2018 09:00:00 19,7 16,7 9 5 16 9 NW 0,0
17.09.2018 08:00:00 18,0 16,2 9 5 16 9 NW -
17.09.2018 07:00:00 17,9 16,2 5 3 13 7 WNW 0,0
17.09.2018 06:00:00 18,9 16,7 5 3 15 8 NNW 0,0
17.09.2018 05:00:00 19,7 16,7 8 4 15 8 NW 0,0
17.09.2018 04:00:00 20,3 17,1 5 3 11 6 NW 0,0
17.09.2018 03:00:00 20,3 17,1 5 3 13 7 NW 0,0
17.09.2018 02:00:00 20,2 17,4 4 2 13 7 NW -
17.09.2018 01:00:00 20,4 17,2 4 2 9 5 N 0,0
17.09.2018 00:00:00 21,0 17,2 4 2 8 4 NW 0,0
16.09.2018 23:00:00 21,1 17,9 5 3 11 6 WNW 0,0
16.09.2018 22:00:00 21,6 17,6 4 2 9 5 NW 0,0
16.09.2018 21:00:00 22,6 17,5 0 0 13 7 N 0,0
16.09.2018 20:00:00 23,9 17,4 4 2 18 10 E -
16.09.2018 19:00:00 24,5 18,4 9 5 16 9 SE 0,0
16.09.2018 18:00:00 25,8 18,7 8 4 16 9 ESE 0,0
16.09.2018 17:00:00 25,7 19,1 8 4 21 11 SE 0,0
16.09.2018 16:00:00 26,0 18,4 11 6 22 12 SE 0,0
16.09.2018 15:00:00 26,7 19,1 11 6 26 14 SE 0,0
16.09.2018 14:00:00 26,0 18,7 13 7 26 14 SE -
16.09.2018 13:00:00 26,3 18,7 13 7 22 12 SE 0,0
16.09.2018 12:00:00 26,8 18,1 11 6 24 13 SE 0,0
16.09.2018 11:00:00 25,3 19,0 9 5 24 13 ESE 0,0
16.09.2018 10:00:00 23,7 19,2 2 1 11 6 W 0,0
16.09.2018 09:00:00 19,8 17,9 5 3 16 9 WNW 0,0
16.09.2018 08:00:00 18,5 17,3 8 4 15 8 NW -
16.09.2018 07:00:00 18,3 17,3 4 2 9 5 NW 0,2
16.09.2018 06:00:00 18,6 17,6 5 3 13 7 NNW 0,0
16.09.2018 05:00:00 18,3 17,5 4 2 11 6 WNW 0,0
16.09.2018 04:00:00 18,9 17,9 5 3 13 7 WNW 0,0
16.09.2018 03:00:00 19,2 18,2 4 2 11 6 NW 0,0
16.09.2018 02:00:00 19,4 18,4 4 2 9 5 NW -
16.09.2018 01:00:00 19,8 18,5 4 2 8 4 WNW 0,0
16.09.2018 00:00:00 20,6 18,5 2 1 9 5 WNW 0,0
15.09.2018 23:00:00 21,5 19,1 4 2 9 5 WNW 0,0
15.09.2018 22:00:00 22,7 19,7 4 2 11 6 ENE 0,0
15.09.2018 21:00:00 23,4 20,0 4 2 16 9 ENE 0,0
15.09.2018 20:00:00 24,1 20,0 5 3 21 11 ENE -
15.09.2018 19:00:00 25,2 19,3 13 7 21 11 ENE 0,0
15.09.2018 18:00:00 25,8 19,0 11 6 26 14 E 0,0
15.09.2018 17:00:00 26,2 20,1 13 7 29 16 ESE 0,0
15.09.2018 16:00:00 28,3 19,5 15 8 31 17 E 0,0
15.09.2018 15:00:00 28,9 20,4 13 7 28 15 E 0,0
15.09.2018 14:00:00 28,2 19,2 11 6 26 14 NE -
15.09.2018 13:00:00 28,1 21,6 9 5 21 11 SSE 0,0
15.09.2018 12:00:00 28,6 20,1 4 2 15 8 SSE 0,0
15.09.2018 11:00:00 25,9 18,8 8 4 18 10 NW 0,0
15.09.2018 10:00:00 23,5 16,3 11 6 22 12 NW 0,0
15.09.2018 09:00:00 20,8 15,1 11 6 18 10 NW 0,0
15.09.2018 08:00:00 19,2 14,2 8 4 22 12 NNW -
15.09.2018 07:00:00 19,1 14,4 8 4 16 9 NNW 0,0
15.09.2018 06:00:00 18,5 14,6 8 4 16 9 NW 0,0
15.09.2018 05:00:00 18,9 15,8 8 4 16 9 NW 0,0
15.09.2018 04:00:00 19,6 17,9 8 4 15 8 NW 0,0
15.09.2018 03:00:00 19,0 17,8 5 3 13 7 NW 0,0
15.09.2018 02:00:00 19,5 18,2 4 2 9 5 WNW -
15.09.2018 01:00:00 20,0 18,5 4 2 9 5 NW 0,0
15.09.2018 00:00:00 20,8 18,9 8 4 11 6 WNW 0,0
14.09.2018 23:00:00 21,3 19,0 4 2 8 4 W 0,0
14.09.2018 22:00:00 22,2 19,9 2 1 8 4 WNW 0,0

tt = Température de l'air
td = dewpoint
ff = Vitesse du vent
fx = gusts
dd = Direction du vent
rr = Quantités de précipitations

stations d'obs. à proximité